| time (UTC) | temp C | wind direction | speed KPH | gust KPH | rain 1hr cm | rain 24hr cm | rain mn cm | humidity % | barometer mb |
| 20260507083035 | 13 | 66 | 0.0 | 6.4 | 0.00 | 0.08 | 0.00 | 70 | 1014.9 |
| 20260507081538 | 13 | 0 | 1.6 | 4.8 | 0.00 | 0.08 | 0.00 | 77 | 1014.9 |
| 20260507080036 | 13 | 61 | 0.0 | 4.8 | 0.00 | 0.08 | 0.00 | 81 | 1014.9 |
| 20260507074538 | 12 | 0 | 1.6 | 4.8 | 0.00 | 0.08 | 0.00 | 84 | 1014.7 |
| 20260507073036 | 12 | 58 | 0.0 | 4.8 | 0.00 | 0.08 | 0.00 | 89 | 1014.8 |
| 20260507071535 | 11 | 6 | 0.0 | 3.2 | 0.00 | 0.08 | 0.00 | 90 | 1014.8 |
| 20260507070035 | 11 | 66 | 0.0 | 3.2 | 0.00 | 0.08 | 0.00 | 93 | 1014.8 |
| 20260507064534 | 10 | 1 | 0.0 | 1.6 | 0.00 | 0.08 | 0.00 | 96 | 1014.8 |
| 20260507063035 | 9 | 49 | 0.0 | 1.6 | 0.00 | 0.08 | 0.00 | 98 | 1014.8 |
| 20260507061537 | 8 | 0 | 0.0 | 1.6 | 0.00 | 0.08 | 0.00 | 98 | 1014.6 |
| 20260507060036 | 8 | 0 | 0.0 | 1.6 | 0.00 | 0.08 | 0.00 | 98 | 1014.5 |
| 20260507054538 | 8 | 0 | 0.0 | 0.0 | 0.00 | 0.08 | 0.00 | 98 | 1014.5 |
| 20260507053035 | 7 | 0 | 0.0 | 0.0 | 0.00 | 0.08 | 0.00 | 99 | 1014.2 |
| 20260507051537 | 7 | 0 | 0.0 | 0.0 | 0.00 | 0.08 | 0.00 | 98 | 1014.1 |
| 20260507050035 | 7 | 0 | 0.0 | 0.0 | 0.00 | 0.08 | 0.00 | 98 | 1013.9 |
| 20260507044536 | 7 | 0 | 0.0 | 1.6 | 0.00 | 0.08 | 0.00 | 98 | 1014.0 |
| 20260507043035 | 7 | 0 | 0.0 | 1.6 | 0.00 | 0.08 | 0.00 | 98 | 1013.9 |
| 20260507041536 | 7 | 0 | 0.0 | 0.0 | 0.00 | 0.08 | 0.00 | 98 | 1013.9 |
| 20260507040036 | 7 | 0 | 0.0 | 0.0 | 0.00 | 0.08 | 0.00 | 98 | 1013.9 |
| 20260507034538 | 7 | 0 | 0.0 | 0.0 | 0.00 | 0.08 | 0.00 | 98 | 1013.9 |
| 20260507033035 | 7 | 0 | 0.0 | 0.0 | 0.00 | 0.08 | 0.00 | 98 | 1013.8 |
| 20260507031537 | 7 | 0 | 0.0 | 0.0 | 0.00 | 0.08 | 0.00 | 98 | 1013.8 |
| 20260507030036 | 7 | 0 | 0.0 | 0.0 | 0.00 | 0.08 | 0.00 | 98 | 1013.8 |
| 20260507024535 | 7 | 0 | 0.0 | 0.0 | 0.00 | 0.08 | 0.00 | 98 | 1013.7 |
| 20260507023045 | 8 | 0 | 0.0 | 0.0 | 0.00 | 0.08 | 0.00 | 98 | 1013.6 |
| 20260507021535 | 8 | 0 | 0.0 | 0.0 | 0.00 | 0.08 | 0.00 | 98 | 1013.5 |
| 20260507020052 | 8 | 0 | 0.0 | 0.0 | 0.00 | 0.08 | 0.00 | 98 | 1013.5 |
| 20260507014541 | 8 | 0 | 0.0 | 0.0 | 0.00 | 0.08 | 0.00 | 98 | 1013.5 |
| 20260507013047 | 8 | 0 | 0.0 | 0.0 | 0.00 | 0.08 | 0.00 | 98 | 1013.5 |
| 20260507011536 | 8 | 0 | 0.0 | 0.0 | 0.00 | 0.08 | 0.00 | 98 | 1013.5 |
| 20260507010036 | 7 | 0 | 0.0 | 0.0 | 0.00 | 0.08 | 0.00 | 98 | 1013.5 |
| 20260507004542 | 8 | 0 | 0.0 | 0.0 | 0.00 | 0.08 | 0.00 | 97 | 1013.4 |
| 20260507003042 | 8 | 0 | 0.0 | 0.0 | 0.00 | 0.08 | 0.00 | 97 | 1013.5 |
| 20260507001543 | 8 | 0 | 0.0 | 0.0 | 0.00 | 0.08 | 0.00 | 97 | 1013.5 |
| 20260507000036 | 8 | 0 | 0.0 | 1.6 | 0.00 | 0.08 | 0.00 | 98 | 1013.5 |
| 20260506234538 | 8 | 0 | 0.0 | 0.0 | 0.00 | 0.08 | 0.00 | 98 | 1013.4 |
| 20260506233036 | 8 | 0 | 0.0 | 0.0 | 0.00 | 0.08 | 0.00 | 98 | 1013.4 |
| 20260506231536 | 8 | 0 | 0.0 | 0.0 | 0.00 | 0.08 | 0.00 | 98 | 1013.4 |
| 20260506230045 | 8 | 0 | 0.0 | 0.0 | 0.00 | 0.08 | 0.00 | 98 | 1013.3 |
| 20260506224535 | 8 | 0 | 0.0 | 1.6 | 0.00 | 0.08 | 0.00 | 98 | 1013.3 |
| 20260506223041 | 7 | 0 | 0.0 | 0.0 | 0.00 | 0.08 | 0.00 | 98 | 1013.3 |
| 20260506221534 | 7 | 0 | 0.0 | 0.0 | 0.00 | 0.08 | 0.00 | 97 | 1013.3 |
| 20260506220041 | 6 | 0 | 0.0 | 0.0 | 0.00 | 0.08 | 0.00 | 97 | 1013.1 |
| 20260506214541 | 6 | 0 | 0.0 | 0.0 | 0.00 | 0.08 | 0.08 | 96 | 1013.2 |
| 20260506213041 | 6 | 0 | 0.0 | 0.0 | 0.00 | 0.08 | 0.08 | 95 | 1013.1 |
| 20260506211535 | 6 | 0 | 0.0 | 0.0 | 0.00 | 0.08 | 0.08 | 95 | 1013.1 |
| 20260506210042 | 7 | 0 | 0.0 | 0.0 | 0.00 | 0.08 | 0.08 | 95 | 1013.0 |
| 20260506204538 | 7 | 0 | 0.0 | 0.0 | 0.00 | 0.08 | 0.08 | 95 | 1013.1 |
| 20260506203036 | 7 | 0 | 0.0 | 0.0 | 0.00 | 0.08 | 0.08 | 94 | 1012.9 |
| 20260506201536 | 8 | 0 | 0.0 | 0.0 | 0.00 | 0.08 | 0.08 | 93 | 1012.7 |
| 20260506200035 | 8 | 0 | 0.0 | 0.0 | 0.00 | 0.08 | 0.08 | 91 | 1012.5 |
| 20260506194536 | 9 | 0 | 0.0 | 0.0 | 0.00 | 0.08 | 0.08 | 91 | 1012.5 |
| 20260506193037 | 10 | 0 | 0.0 | 0.0 | 0.00 | 0.08 | 0.08 | 89 | 1012.3 |
| 20260506191539 | 10 | 0 | 0.0 | 0.0 | 0.00 | 0.08 | 0.08 | 86 | 1012.0 |
| 20260506190035 | 11 | 0 | 0.0 | 0.0 | 0.00 | 0.08 | 0.08 | 82 | 1011.9 |
| 20260506184546 | 12 | 0 | 0.0 | 1.6 | 0.00 | 0.08 | 0.08 | 81 | 1011.8 |
| 20260506183050 | 12 | 0 | 0.0 | 1.6 | 0.00 | 0.08 | 0.08 | 79 | 1011.6 |
| 20260506181600 | 12 | 22 | 0.0 | 4.8 | 0.00 | 0.08 | 0.08 | 79 | 1011.3 |
| 20260506180037 | 12 | 20 | 0.0 | 4.8 | 0.00 | 0.08 | 0.08 | 79 | 1011.2 |
| 20260506174535 | 12 | 0 | 1.6 | 8.0 | 0.00 | 0.23 | 0.08 | 77 | 1011.1 |
| 20260506173053 | 12 | 27 | 3.2 | 11.3 | 0.00 | 0.23 | 0.08 | 76 | 1011.0 |
| 20260506171532 | 13 | 257 | 3.2 | 11.3 | 0.00 | 0.23 | 0.08 | 78 | 1010.8 |
| 20260506170040 | 13 | 53 | 4.8 | 12.9 | 0.00 | 0.23 | 0.08 | 77 | 1010.7 |
| 20260506164538 | 13 | 315 | 3.2 | 11.3 | 0.00 | 0.23 | 0.08 | 76 | 1010.6 |
| 20260506163038 | 13 | 32 | 4.8 | 17.7 | 0.00 | 0.23 | 0.08 | 75 | 1010.6 |
| 20260506161535 | 13 | 49 | 4.8 | 14.5 | 0.00 | 0.23 | 0.08 | 77 | 1010.7 |
| 20260506160044 | 13 | 294 | 1.6 | 11.3 | 0.00 | 0.23 | 0.08 | 77 | 1010.7 |
| 20260506154538 | 13 | 34 | 3.2 | 9.7 | 0.00 | 0.23 | 0.08 | 80 | 1010.7 |
| 20260506153050 | 13 | 56 | 1.6 | 9.7 | 0.00 | 0.23 | 0.08 | 82 | 1010.6 |
| 20260506151541 | 13 | 278 | 3.2 | 8.0 | 0.00 | 0.23 | 0.08 | 83 | 1010.6 |
| 20260506150035 | 13 | 330 | 3.2 | 11.3 | 0.00 | 0.23 | 0.08 | 85 | 1010.5 |
| 20260506144532 | 12 | 325 | 3.2 | 9.7 | 0.00 | 0.23 | 0.08 | 86 | 1010.6 |
| 20260506143036 | 12 | 299 | 3.2 | 14.5 | 0.00 | 0.23 | 0.08 | 88 | 1010.5 |
| 20260506141537 | 12 | 4 | 6.4 | 12.9 | 0.00 | 0.23 | 0.08 | 85 | 1010.5 |
| 20260506140036 | 12 | 350 | 1.6 | 8.0 | 0.00 | 0.23 | 0.08 | 88 | 1010.5 |
| 20260506134535 | 12 | 6 | 3.2 | 11.3 | 0.00 | 0.23 | 0.08 | 89 | 1010.5 |
| 20260506133037 | 11 | 8 | 4.8 | 9.7 | 0.00 | 0.23 | 0.08 | 90 | 1010.4 |
| 20260506131540 | 12 | 333 | 3.2 | 9.7 | 0.00 | 0.23 | 0.08 | 91 | 1010.4 |
| 20260506130036 | 11 | 2 | 4.8 | 9.7 | 0.00 | 0.23 | 0.08 | 91 | 1010.4 |
| 20260506124535 | 12 | 306 | 3.2 | 11.3 | 0.00 | 0.23 | 0.08 | 89 | 1010.3 |
| 20260506123036 | 12 | 316 | 4.8 | 12.9 | 0.00 | 0.23 | 0.08 | 89 | 1010.2 |
| 20260506121533 | 12 | 342 | 6.4 | 14.5 | 0.00 | 0.23 | 0.08 | 89 | 1010.0 |
| 20260506120040 | 13 | 313 | 4.8 | 11.3 | 0.00 | 0.23 | 0.08 | 89 | 1009.9 |
| 20260506114536 | 13 | 284 | 3.2 | 9.7 | 0.00 | 0.23 | 0.08 | 88 | 1009.8 |
| 20260506113041 | 13 | 288 | 3.2 | 11.3 | 0.00 | 0.23 | 0.08 | 88 | 1009.7 |
| 20260506111535 | 13 | 278 | 3.2 | 12.9 | 0.00 | 0.23 | 0.08 | 89 | 1009.7 |
| 20260506110038 | 13 | 335 | 3.2 | 9.7 | 0.00 | 0.23 | 0.08 | 90 | 1009.7 |
| 20260506104536 | 12 | 269 | 4.8 | 9.7 | 0.00 | 0.36 | 0.08 | 90 | 1009.6 |
| 20260506103039 | 12 | 290 | 4.8 | 17.7 | 0.05 | 0.36 | 0.08 | 91 | 1009.6 |
| 20260506101535 | 12 | 271 | 3.2 | 14.5 | 0.08 | 0.36 | 0.08 | 94 | 1009.6 |
| 20260506100037 | 12 | 319 | 4.8 | 12.9 | 0.05 | 0.33 | 0.05 | 94 | 1009.6 |
| 20260506094538 | 11 | 277 | 3.2 | 9.7 | 0.05 | 0.33 | 0.05 | 94 | 1009.6 |
| 20260506093035 | 12 | 22 | 3.2 | 8.0 | 0.00 | 0.28 | 0.00 | 92 | 1009.4 |
| 20260506091536 | 12 | 277 | 1.6 | 6.4 | 0.00 | 0.28 | 0.00 | 91 | 1009.2 |
| 20260506090035 | 12 | 328 | 1.6 | 9.7 | 0.00 | 0.28 | 0.00 | 90 | 1009.0 |
| 20260506084539 | 12 | 293 | 3.2 | 17.7 | 0.00 | 0.28 | 0.00 | 89 | 1008.9 |